Nearby METAR Reports

 

K6B9 - Skaneateles, New York, USA
Distance from station: SE 7mi, 12km
Updated: Wed, 20-Jan-2021 7:55pm EST
Overcast
Overcast
 Wind from calm
Wind: Calm
Temperature: 12°F , -11°C
Dew Point: 10°F , -12°C
Humidity: 92%
Barometer: 29.98 inHg , 1015.2 hPa
Clouds: Overcast
Visibility: 10 miles , 16 km
Cloud details: Few Clouds 2900 ft
Mostly cloudy 3500 ft
Overcast 11000 ft
2021/01/21 00:55 K6B9 210055Z AUTO 00000KT 10SM FEW029 BKN035 OVC110 M11/M12 A2998 RMK AO2
KSYR - Syracuse, New York, USA
Distance from station: ENE 24mi, 38km
Updated: Wed, 20-Jan-2021 7:54pm EST
Light snow, Overcast
Light snow, Overcast
 Wind from WSW
Wind: WSW 5 mph , 7 km/h
Temperature: 21°F , -6°C
Wind Chill: 14°F , -10°C
Dew Point: 16°F , -9°C
Humidity: 80%
Barometer: 30.02 inHg , 1016.6 hPa
Summary: Light Snow
Clouds: Overcast
Visibility: 9 miles , 14 km
Cloud details: Overcast 4200 ft
2021/01/21 00:54 KSYR 210054Z 24004KT 9SM -SN OVC042 M06/M09 A3002 RMK AO2 SLP170 P0000 T10611089
 
KFZY - Fulton, New York, USA
Distance from station: NNE 26mi, 41km
Updated: Wed, 20-Jan-2021 7:54pm EST
Overcast
Overcast
 Wind from SSW
Wind: SSW 6 mph , 9 km/h
Temperature: 21°F , -6°C
Wind Chill: 13°F , -11°C
Dew Point: 12°F , -11°C
Humidity: 68%
Barometer: 30.01 inHg , 1016.3 hPa
Clouds: Overcast
Visibility: 10 miles , 16 km
Cloud details: Mostly cloudy 2800 ft
Overcast 3300 ft
2021/01/21 00:54 KFZY 210054Z AUTO 21005KT 10SM BKN028 OVC033 M06/M11 A3001 RMK AO2 SLP170 T10561106 $
KN03 - Cortland, New York, USA
Distance from station: SSE 32mi, 51km
Updated: Wed, 20-Jan-2021 7:55pm EST
Mostly cloudy
Mostly cloudy
 Wind from calm
Wind: Calm
Temperature: 12°F , -11°C
Dew Point: 9°F , -13°C
Humidity: 85%
Barometer: 29.98 inHg , 1015.2 hPa
Clouds: Mostly cloudy
Visibility: 10 miles , 16 km
Cloud details: Mostly cloudy 3900 ft
2021/01/21 00:55 KN03 210055Z AUTO 00000KT 10SM BKN039 M11/M13 A2998 RMK AO2
 
KSDC - Williamson/Sodus, New York, USA
Distance from station: WNW 34mi, 54km
Updated: Wed, 20-Jan-2021 7:55pm EST
Overcast
Overcast
 Wind from calm
Wind: Calm
Temperature: 23°F , -5°C
Dew Point: 14°F , -10°C
Humidity: 68%
Barometer: 30.02 inHg , 1016.6 hPa
Clouds: Overcast
Visibility: 10 miles , 16 km
Cloud details: Overcast 3900 ft
2021/01/21 00:55 KSDC 210055Z AUTO 00000KT 10SM OVC039 M05/M10 A3002 RMK AO2
KPEO - Penn Yan, New York, USA
Distance from station: SW 35mi, 57km
Updated: Wed, 20-Jan-2021 7:53pm EST
Overcast
Overcast
 Wind from calm
Wind: Calm
Temperature: 21°F , -6°C
Dew Point: 12°F , -11°C
Humidity: 68%
Barometer: 29.99 inHg , 1015.6 hPa
Clouds: Overcast
Visibility: 10 miles , 16 km
Cloud details: Overcast 3300 ft
2021/01/21 00:53 KPEO 210053Z AUTO 00000KT 10SM OVC033 M06/M11 A2999 RMK AO2 SLP170 T10611106
 
KITH - Ithaca/Tompkins, New York, USA
Distance from station: S 37mi, 59km
Updated: Wed, 20-Jan-2021 7:56pm EST
Light snow, Overcast
Light snow, Overcast
 Wind from NE
Wind: NE 3 mph , 6 km/h
Temperature: 19°F , -7°C
Dew Point: 12°F , -11°C
Humidity: 73%
Barometer: 29.99 inHg , 1015.6 hPa
Summary: Light Snow
Clouds: Overcast
Visibility: 9 miles , 14 km
Cloud details: Overcast 3400 ft
2021/01/21 00:56 KITH 210056Z 05003KT 9SM -SN OVC034 M07/M11 A2999 RMK AO2 SNB49 SLP172 P0000 T10721111
KVGC - Hamilton Municip, New York, USA
Distance from station: E 50mi, 80km
Updated: Wed, 20-Jan-2021 7:55pm EST
Overcast
Overcast
 Wind from calm
Wind: Calm
Temperature: 18°F , -8°C
Dew Point: 14°F , -10°C
Humidity: 86%
Barometer: 29.98 inHg , 1015.2 hPa
Clouds: Overcast
Visibility: 3 miles , 5 km
Cloud details: Mostly cloudy 2600 ft
Overcast 4000 ft
2021/01/21 00:55 KVGC 210055Z AUTO 00000KT 3SM BKN026 OVC040 M08/M10 A2998 RMK AO2